createdAt,value
2023-01-13T00:00:12.805Z,97728.00
2023-01-13T00:02:47.888Z,97733.00
2023-01-13T00:05:22.905Z,97740.00
2023-01-13T00:07:57.859Z,97731.00
2023-01-13T00:10:36.277Z,97728.00
2023-01-13T00:13:11.214Z,97734.00
2023-01-13T00:16:00.186Z,97724.00
2023-01-13T00:18:37.044Z,97727.00
2023-01-13T00:21:19.618Z,97726.00
2023-01-13T00:23:55.446Z,97719.00
2023-01-13T00:26:30.826Z,97709.00
2023-01-13T00:29:06.280Z,97715.00
2023-01-13T00:31:41.270Z,97717.00
2023-01-13T00:34:16.258Z,97702.00
2023-01-13T00:36:51.216Z,97703.00
2023-01-13T00:39:26.170Z,97704.00
2023-01-13T00:42:19.533Z,97700.00
2023-01-13T00:44:54.495Z,97688.00
2023-01-13T00:47:29.546Z,97706.00
2023-01-13T00:50:04.945Z,97699.00
2023-01-13T00:52:42.088Z,97692.00
2023-01-13T00:55:17.272Z,97694.00
2023-01-13T00:57:52.312Z,97689.00
2023-01-13T01:00:27.271Z,97689.00
2023-01-13T01:03:02.247Z,97690.00
2023-01-13T01:05:41.186Z,97679.00
2023-01-13T01:08:16.191Z,97684.00
2023-01-13T01:11:00.886Z,97674.00
2023-01-13T01:13:37.471Z,97682.00
2023-01-13T01:16:16.727Z,97675.00
2023-01-13T01:18:53.812Z,97668.00
2023-01-13T01:21:29.170Z,97671.00
2023-01-13T01:24:05.874Z,97678.00
2023-01-13T01:26:42.009Z,97679.00
2023-01-13T01:29:17.024Z,97671.00
2023-01-13T01:31:52.072Z,97680.00
2023-01-13T01:34:27.214Z,97675.00
2023-01-13T01:37:02.178Z,97663.00
2023-01-13T01:39:37.136Z,97675.00
2023-01-13T01:42:37.778Z,97671.00
2023-01-13T01:45:20.827Z,97670.00
2023-01-13T01:48:01.328Z,97666.00
2023-01-13T01:50:37.086Z,97662.00
2023-01-13T01:53:17.168Z,97666.00
2023-01-13T01:55:52.301Z,97670.00
2023-01-13T01:58:39.718Z,97658.00
2023-01-13T02:01:15.501Z,97665.00
2023-01-13T02:04:12.901Z,97665.00
2023-01-13T02:06:49.209Z,97661.00
2023-01-13T02:09:26.339Z,97658.00
2023-01-13T02:12:19.901Z,97656.00
2023-01-13T02:14:57.661Z,97664.00
2023-01-13T02:17:53.965Z,97655.00
2023-01-13T02:21:08.986Z,97650.00
2023-01-13T02:24:37.204Z,97645.00
2023-01-13T02:27:52.063Z,97643.00
2023-01-13T02:31:05.487Z,97651.00
2023-01-13T02:34:02.271Z,97641.00
2023-01-13T02:36:52.634Z,97637.00
2023-01-13T02:39:35.997Z,97628.00
2023-01-13T02:42:38.347Z,97628.00
2023-01-13T02:45:23.619Z,97621.00
2023-01-13T02:48:01.162Z,97620.00
2023-01-13T02:50:42.693Z,97621.00
2023-01-13T02:53:44.694Z,97617.00
2023-01-13T02:56:21.224Z,97631.00
2023-01-13T02:58:58.536Z,97623.00
2023-01-13T03:01:33.586Z,97601.00
2023-01-13T03:04:13.909Z,97619.00
2023-01-13T03:07:12.798Z,97608.00
2023-01-13T03:10:09.722Z,97616.00
2023-01-13T03:13:10.121Z,97615.00
2023-01-13T03:16:10.287Z,97604.00
2023-01-13T03:19:11.678Z,97607.00
2023-01-13T03:21:56.681Z,97604.00
2023-01-13T03:24:45.025Z,97606.00
2023-01-13T03:27:50.792Z,97617.00
2023-01-13T03:30:37.904Z,97590.00
2023-01-13T03:33:22.475Z,97596.00
2023-01-13T03:36:03.723Z,97592.00
2023-01-13T03:38:50.629Z,97590.00
2023-01-13T03:41:39.125Z,97603.00
2023-01-13T03:44:25.572Z,97592.00
2023-01-13T03:47:34.150Z,97573.00
2023-01-13T03:50:27.574Z,97581.00
2023-01-13T03:53:13.994Z,97577.00
2023-01-13T03:55:54.160Z,97587.00
2023-01-13T03:58:33.980Z,97571.00
2023-01-13T04:01:16.301Z,97568.00
2023-01-13T04:04:03.539Z,97578.00
2023-01-13T04:07:04.385Z,97558.00
2023-01-13T04:09:53.138Z,97560.00
2023-01-13T04:13:02.122Z,97553.00
2023-01-13T04:15:46.284Z,97542.00
2023-01-13T04:18:30.355Z,97543.00
2023-01-13T04:21:07.118Z,97538.00
2023-01-13T04:23:41.949Z,97545.00
2023-01-13T04:26:18.169Z,97549.00
2023-01-13T04:28:54.695Z,97546.00
2023-01-13T04:31:29.576Z,97544.00
2023-01-13T04:34:04.454Z,97541.00
2023-01-13T04:36:39.536Z,97565.00
2023-01-13T04:39:14.427Z,97549.00
2023-01-13T04:41:58.272Z,97554.00
2023-01-13T04:44:35.343Z,97579.00
2023-01-13T04:47:10.313Z,97538.00
2023-01-13T04:49:45.137Z,97538.00
2023-01-13T04:52:20.026Z,97536.00
2023-01-13T04:54:54.877Z,97542.00
2023-01-13T04:57:29.807Z,97556.00
2023-01-13T05:00:07.602Z,97538.00
2023-01-13T05:02:42.557Z,97537.00
2023-01-13T05:05:17.901Z,97539.00
2023-01-13T05:07:52.879Z,97531.00
2023-01-13T05:10:28.061Z,97548.00
2023-01-13T05:13:21.216Z,97553.00
2023-01-13T05:16:14.691Z,97551.00
2023-01-13T05:18:49.570Z,97554.00
2023-01-13T05:21:43.035Z,97550.00
2023-01-13T05:24:36.255Z,97550.00
2023-01-13T05:27:11.206Z,97548.00
2023-01-13T05:29:46.054Z,97553.00
2023-01-13T05:32:22.279Z,97543.00
2023-01-13T05:34:57.309Z,97535.00
2023-01-13T05:37:32.169Z,97539.00
2023-01-13T05:40:27.452Z,97541.00
2023-01-13T05:43:24.771Z,97528.00
2023-01-13T05:46:04.156Z,97528.00
2023-01-13T05:48:42.550Z,97530.00
2023-01-13T05:51:17.412Z,97526.00
2023-01-13T05:53:52.821Z,97529.00
2023-01-13T05:56:27.667Z,97513.00
2023-01-13T05:59:02.637Z,97521.00
2023-01-13T06:01:37.506Z,97524.00
2023-01-13T06:04:12.482Z,97528.00
2023-01-13T06:06:48.491Z,97534.00
2023-01-13T06:09:23.328Z,97534.00
2023-01-13T06:11:58.202Z,97540.00
2023-01-13T06:14:42.172Z,97535.00
2023-01-13T06:17:17.060Z,97542.00
2023-01-13T06:19:52.070Z,97548.00
2023-01-13T06:22:35.619Z,97552.00
2023-01-13T06:25:44.432Z,97545.00
2023-01-13T06:28:19.293Z,97547.00
2023-01-13T06:31:00.962Z,97565.00
2023-01-13T06:33:44.653Z,97559.00
2023-01-13T06:36:29.734Z,97553.00
2023-01-13T06:39:06.680Z,97548.00
2023-01-13T06:42:01.133Z,97537.00
2023-01-13T06:44:36.189Z,97541.00
2023-01-13T06:47:11.258Z,97536.00
2023-01-13T06:49:46.531Z,97537.00
2023-01-13T06:52:21.780Z,97532.00
2023-01-13T06:54:57.565Z,97533.00
2023-01-13T06:57:32.398Z,97530.00
2023-01-13T07:00:11.443Z,97535.00
2023-01-13T07:02:46.512Z,97532.00
2023-01-13T07:05:22.499Z,97525.00
2023-01-13T07:07:57.424Z,97532.00
2023-01-13T07:10:33.277Z,97519.00
2023-01-13T07:13:26.660Z,97530.00
2023-01-13T07:16:05.705Z,97534.00
2023-01-13T07:18:40.763Z,97526.00
2023-01-13T07:21:20.003Z,97522.00
2023-01-13T07:23:54.898Z,97529.00
2023-01-13T07:26:29.849Z,97519.00
2023-01-13T07:29:04.712Z,97541.00
2023-01-13T07:31:39.902Z,97536.00
2023-01-13T07:34:15.402Z,97546.00
2023-01-13T07:36:50.830Z,97547.00
2023-01-13T07:39:25.747Z,97545.00
2023-01-13T07:42:19.248Z,97532.00
2023-01-13T07:44:54.141Z,97538.00
2023-01-13T07:47:29.026Z,97525.00
2023-01-13T07:50:04.351Z,97535.00
2023-01-13T07:52:39.201Z,97543.00
2023-01-13T07:55:14.199Z,97532.00
2023-01-13T07:57:49.123Z,97542.00
2023-01-13T08:00:24.267Z,97543.00
2023-01-13T08:03:00.686Z,97543.00
2023-01-13T08:05:36.273Z,97537.00
2023-01-13T08:08:11.356Z,97532.00
2023-01-13T08:10:46.411Z,97551.00
2023-01-13T08:13:21.454Z,97549.00
2023-01-13T08:16:02.820Z,97558.00
2023-01-13T08:18:38.865Z,97570.00
2023-01-13T08:21:15.560Z,97569.00
2023-01-13T08:23:50.506Z,97570.00
2023-01-13T08:26:25.575Z,97575.00
2023-01-13T08:29:00.589Z,97587.00
2023-01-13T08:31:35.527Z,97592.00
2023-01-13T08:34:10.453Z,97602.00
2023-01-13T08:36:45.432Z,97593.00
2023-01-13T08:39:20.444Z,97589.00
2023-01-13T08:41:55.372Z,97589.00
2023-01-13T08:44:32.075Z,97597.00
2023-01-13T08:47:06.981Z,97624.00
2023-01-13T08:49:41.909Z,97634.00
2023-01-13T08:52:16.888Z,97632.00
2023-01-13T08:54:52.143Z,97647.00
2023-01-13T08:57:27.090Z,97644.00
2023-01-13T09:00:02.951Z,97656.00
2023-01-13T09:02:38.579Z,97666.00
2023-01-13T09:05:14.006Z,97696.00
2023-01-13T09:07:50.029Z,97710.00
2023-01-13T09:10:25.264Z,97698.00
2023-01-13T09:13:11.951Z,97726.00
2023-01-13T09:15:47.410Z,97705.00
2023-01-13T09:18:22.390Z,97712.00
2023-01-13T09:20:59.191Z,97718.00
2023-01-13T09:23:34.057Z,97712.00
2023-01-13T09:26:10.078Z,97713.00
2023-01-13T09:28:44.929Z,97722.00
2023-01-13T09:31:20.173Z,97713.00
2023-01-13T09:34:13.506Z,97713.00
2023-01-13T09:36:49.059Z,97714.00
2023-01-13T09:39:24.059Z,97714.00
2023-01-13T09:42:37.157Z,97710.00
2023-01-13T09:45:23.830Z,97716.00
2023-01-13T09:48:14.417Z,97716.00
2023-01-13T09:51:20.916Z,97729.00
2023-01-13T09:54:38.059Z,97718.00
2023-01-13T09:57:16.308Z,97727.00
2023-01-13T09:59:51.178Z,97731.00
2023-01-13T10:02:41.394Z,97736.00
2023-01-13T10:05:39.285Z,97743.00
2023-01-13T10:08:26.799Z,97743.00
2023-01-13T10:11:40.629Z,97736.00
2023-01-13T10:14:51.526Z,97761.00
2023-01-13T10:17:50.778Z,97741.00
2023-01-13T10:21:02.889Z,97744.00
2023-01-13T10:24:02.674Z,97748.00
2023-01-13T10:26:47.974Z,97739.00
2023-01-13T10:29:27.337Z,97746.00
2023-01-13T10:32:02.327Z,97749.00
2023-01-13T10:34:57.183Z,97746.00
2023-01-13T10:37:32.083Z,97743.00
2023-01-13T10:40:18.379Z,97759.00
2023-01-13T10:43:06.472Z,97754.00
2023-01-13T10:46:25.817Z,97758.00
2023-01-13T10:49:28.409Z,97769.00
2023-01-13T10:52:25.307Z,97778.00
2023-01-13T10:55:01.094Z,97787.00
2023-01-13T10:57:36.996Z,97781.00
2023-01-13T11:00:32.040Z,97789.00
2023-01-13T11:03:15.589Z,97772.00
2023-01-13T11:05:57.195Z,97756.00
2023-01-13T11:08:45.931Z,97759.00
2023-01-13T11:11:47.383Z,97773.00
2023-01-13T11:14:43.089Z,97769.00
2023-01-13T11:17:21.100Z,97768.00
2023-01-13T11:20:07.356Z,97766.00
2023-01-13T11:22:52.914Z,97780.00
2023-01-13T11:25:35.227Z,97798.00
2023-01-13T11:28:35.569Z,97784.00
2023-01-13T11:31:37.615Z,97789.00
2023-01-13T11:34:24.241Z,97801.00
2023-01-13T11:37:02.169Z,97793.00
2023-01-13T11:40:01.497Z,97803.00
2023-01-13T11:43:04.757Z,97806.00
2023-01-13T11:45:51.163Z,97791.00
2023-01-13T11:48:30.437Z,97793.00
2023-01-13T11:51:14.592Z,97794.00
2023-01-13T11:54:19.299Z,97788.00
2023-01-13T11:57:15.245Z,97786.00
2023-01-13T12:00:13.209Z,97788.00
2023-01-13T12:03:14.310Z,97773.00
2023-01-13T12:06:11.456Z,97758.00
2023-01-13T12:09:23.517Z,97760.00
2023-01-13T12:12:32.840Z,97780.00
2023-01-13T12:15:50.699Z,97780.00
2023-01-13T12:18:51.701Z,97789.00
2023-01-13T12:21:34.254Z,97798.00
2023-01-13T12:24:38.669Z,97788.00
2023-01-13T12:27:22.188Z,97779.00
2023-01-13T12:29:59.818Z,97794.00
2023-01-13T12:32:38.238Z,97802.00
2023-01-13T12:36:07.054Z,97818.00
2023-01-13T12:39:14.534Z,97808.00
2023-01-13T12:42:33.121Z,97801.00
2023-01-13T12:45:10.656Z,97820.00
2023-01-13T12:47:46.368Z,97827.00
2023-01-13T12:50:26.907Z,97824.00
2023-01-13T12:53:32.838Z,97841.00
2023-01-13T12:56:22.221Z,97835.00
2023-01-13T12:59:33.593Z,97840.00
2023-01-13T13:02:11.842Z,97860.00
2023-01-13T13:04:51.806Z,97820.00
2023-01-13T13:07:43.299Z,97820.00
2023-01-13T13:10:32.087Z,97815.00
2023-01-13T13:13:40.206Z,97805.00
2023-01-13T13:16:31.234Z,97822.00
2023-01-13T13:19:18.578Z,97808.00
2023-01-13T13:22:12.074Z,97837.00
2023-01-13T13:24:49.923Z,97835.00
2023-01-13T13:27:46.807Z,97828.00
2023-01-13T13:30:36.805Z,97819.00
2023-01-13T13:33:49.726Z,97827.00
2023-01-13T13:36:45.955Z,97837.00
2023-01-13T13:39:45.571Z,97830.00
2023-01-13T13:42:44.480Z,97844.00
2023-01-13T13:45:44.829Z,97854.00
2023-01-13T13:48:30.657Z,97859.00
2023-01-13T13:51:29.158Z,97861.00
2023-01-13T13:54:04.831Z,97861.00
2023-01-13T13:56:44.577Z,97866.00
2023-01-13T13:59:25.203Z,97881.00
2023-01-13T14:02:02.137Z,97894.00
2023-01-13T14:04:39.041Z,97900.00
2023-01-13T14:07:20.978Z,97918.00
2023-01-13T14:09:56.491Z,97920.00
2023-01-13T14:12:38.398Z,97918.00
2023-01-13T14:15:33.088Z,97932.00
2023-01-13T14:18:18.905Z,97943.00
2023-01-13T14:21:22.706Z,97950.00
2023-01-13T14:24:11.904Z,97998.00
2023-01-13T14:26:51.793Z,97947.00
2023-01-13T14:29:29.013Z,97935.00
2023-01-13T14:32:06.101Z,97933.00
2023-01-13T14:34:41.174Z,97925.00
2023-01-13T14:37:35.458Z,97931.00
2023-01-13T14:40:44.632Z,97927.00
2023-01-13T14:43:23.269Z,97934.00
2023-01-13T14:46:01.289Z,97929.00
2023-01-13T14:48:37.004Z,97925.00
2023-01-13T14:51:21.230Z,97931.00
2023-01-13T14:53:57.311Z,97941.00
2023-01-13T14:56:44.213Z,97943.00
2023-01-13T14:59:35.991Z,97950.00
2023-01-13T15:02:34.008Z,97951.00
2023-01-13T15:05:24.467Z,97941.00
2023-01-13T15:08:12.225Z,97954.00
2023-01-13T15:10:52.808Z,97949.00
2023-01-13T15:13:53.035Z,97956.00
2023-01-13T15:16:29.951Z,97959.00
2023-01-13T15:19:05.007Z,97966.00
2023-01-13T15:21:40.555Z,97969.00
2023-01-13T15:24:15.483Z,97982.00
2023-01-13T15:26:50.621Z,97979.00
2023-01-13T15:29:26.043Z,97990.00
2023-01-13T15:32:00.889Z,97971.00
2023-01-13T15:34:35.838Z,97974.00
2023-01-13T15:37:11.045Z,97977.00
2023-01-13T15:39:46.593Z,97993.00
2023-01-13T15:42:39.898Z,97985.00
2023-01-13T15:45:33.321Z,97988.00
2023-01-13T15:48:08.245Z,97990.00
2023-01-13T15:50:43.159Z,97994.00
2023-01-13T15:53:18.975Z,97995.00
2023-01-13T15:55:58.986Z,97998.00
2023-01-13T15:58:33.861Z,97996.00
2023-01-13T16:01:11.689Z,98008.00
2023-01-13T16:03:46.611Z,98018.00
2023-01-13T16:06:32.437Z,98031.00
2023-01-13T16:09:07.573Z,98041.00
2023-01-13T16:11:42.798Z,98032.00
2023-01-13T16:14:17.641Z,98032.00
2023-01-13T16:16:52.487Z,98025.00
2023-01-13T16:19:27.378Z,98041.00
2023-01-13T16:22:02.193Z,98050.00
2023-01-13T16:24:37.572Z,98059.00
2023-01-13T16:27:18.125Z,98057.00
2023-01-13T16:29:53.500Z,98055.00
2023-01-13T16:32:28.366Z,98069.00
2023-01-13T16:35:03.206Z,98078.00
2023-01-13T16:37:38.039Z,98066.00
2023-01-13T16:40:26.655Z,98073.00
2023-01-13T16:43:03.895Z,98067.00
2023-01-13T16:45:39.035Z,98076.00
2023-01-13T16:48:22.945Z,98072.00
2023-01-13T16:50:58.022Z,98086.00
2023-01-13T16:53:34.066Z,98078.00
2023-01-13T16:56:30.967Z,98090.00
2023-01-13T16:59:10.206Z,98083.00
2023-01-13T17:01:45.234Z,98085.00
2023-01-13T17:04:23.378Z,98091.00
2023-01-13T17:07:01.004Z,98106.00
2023-01-13T17:09:35.875Z,98120.00
2023-01-13T17:12:11.525Z,98115.00
2023-01-13T17:14:46.365Z,98119.00
2023-01-13T17:17:25.650Z,98117.00
2023-01-13T17:20:00.731Z,98129.00
2023-01-13T17:22:35.664Z,98121.00
2023-01-13T17:25:13.246Z,98137.00
2023-01-13T17:27:48.088Z,98144.00
2023-01-13T17:30:23.063Z,98149.00
2023-01-13T17:32:57.930Z,98159.00
2023-01-13T17:35:32.845Z,98156.00
2023-01-13T17:38:07.717Z,98153.00
2023-01-13T17:40:42.569Z,98155.00
2023-01-13T17:43:17.426Z,98164.00
2023-01-13T17:45:52.408Z,98155.00
2023-01-13T17:48:27.608Z,98160.00
2023-01-13T17:51:03.468Z,98173.00
2023-01-13T17:53:44.138Z,98175.00
2023-01-13T17:56:19.184Z,98173.00
2023-01-13T17:58:54.053Z,98180.00
2023-01-13T18:01:32.855Z,98184.00
2023-01-13T18:04:15.552Z,98188.00
2023-01-13T18:06:51.433Z,98190.00
2023-01-13T18:09:26.720Z,98185.00
2023-01-13T18:12:01.804Z,98189.00
2023-01-13T18:14:36.721Z,98189.00
2023-01-13T18:17:12.497Z,98194.00
2023-01-13T18:20:05.773Z,98191.00
2023-01-13T18:22:59.097Z,98212.00
2023-01-13T18:26:12.371Z,98222.00
2023-01-13T18:28:47.236Z,98216.00
2023-01-13T18:31:22.088Z,98214.00
2023-01-13T18:33:57.311Z,98220.00
2023-01-13T18:36:32.151Z,98208.00
2023-01-13T18:39:07.119Z,98212.00
2023-01-13T18:42:00.307Z,98226.00
2023-01-13T18:44:35.156Z,98244.00
2023-01-13T18:47:10.071Z,98239.00
2023-01-13T18:49:46.345Z,98238.00
2023-01-13T18:52:23.194Z,98244.00
2023-01-13T18:54:59.020Z,98249.00
2023-01-13T18:57:37.375Z,98254.00
2023-01-13T19:00:17.808Z,98256.00
2023-01-13T19:05:40.813Z,98259.00
2023-01-13T19:08:15.665Z,98265.00
2023-01-13T19:10:52.732Z,98255.00
2023-01-13T19:13:28.234Z,98253.00
2023-01-13T19:16:07.520Z,98262.00
2023-01-13T19:18:42.916Z,98265.00
2023-01-13T19:21:18.189Z,98269.00
2023-01-13T19:23:55.178Z,98283.00
2023-01-13T19:26:30.032Z,98289.00
2023-01-13T19:29:04.847Z,98287.00
2023-01-13T19:31:39.689Z,98304.00
2023-01-13T19:34:14.852Z,98293.00
2023-01-13T19:36:52.903Z,98298.00
2023-01-13T19:39:27.740Z,98315.00
2023-01-13T19:42:22.519Z,98311.00
2023-01-13T19:45:16.589Z,98322.00
2023-01-13T19:47:51.459Z,98327.00
2023-01-13T19:50:27.337Z,98323.00
2023-01-13T19:53:02.253Z,98327.00
2023-01-13T19:55:37.469Z,98331.00
2023-01-13T19:58:12.377Z,98346.00
2023-01-13T20:00:48.358Z,98359.00
2023-01-13T20:03:30.973Z,98346.00
2023-01-13T20:06:11.018Z,98363.00
2023-01-13T20:08:46.206Z,98370.00
2023-01-13T20:11:25.151Z,98368.00
2023-01-13T20:14:01.148Z,98375.00
2023-01-13T20:16:35.998Z,98373.00
2023-01-13T20:19:10.824Z,98358.00
2023-01-13T20:21:45.896Z,98368.00
2023-01-13T20:24:20.887Z,98368.00
2023-01-13T20:26:56.299Z,98377.00
2023-01-13T20:29:31.885Z,98384.00
2023-01-13T20:32:06.836Z,98394.00
2023-01-13T20:34:41.761Z,98394.00
2023-01-13T20:37:16.576Z,98372.00
2023-01-13T20:39:51.420Z,98377.00
2023-01-13T20:42:29.197Z,98383.00
2023-01-13T20:45:04.821Z,98386.00
2023-01-13T20:47:39.654Z,98395.00
2023-01-13T20:50:15.703Z,98376.00
2023-01-13T20:52:52.533Z,98364.00
2023-01-13T20:55:27.473Z,98375.00
2023-01-13T20:58:02.318Z,98379.00
2023-01-13T21:00:37.218Z,98381.00
2023-01-13T21:03:12.591Z,98383.00
2023-01-13T21:05:47.986Z,98373.00
2023-01-13T21:08:22.818Z,98377.00
2023-01-13T21:11:05.651Z,98383.00
2023-01-13T21:14:00.044Z,98387.00
2023-01-13T21:16:34.946Z,98395.00
2023-01-13T21:19:10.781Z,98396.00
2023-01-13T21:21:45.693Z,98391.00
2023-01-13T21:24:20.698Z,98399.00
2023-01-13T21:27:01.505Z,98392.00
2023-01-13T21:29:36.451Z,98406.00
2023-01-13T21:32:13.438Z,98407.00
2023-01-13T21:34:48.358Z,98414.00
2023-01-13T21:37:23.318Z,98418.00
2023-01-13T21:39:58.153Z,98412.00
2023-01-13T21:42:51.433Z,98416.00
2023-01-13T21:45:44.932Z,98411.00
2023-01-13T21:48:19.811Z,98420.00
2023-01-13T21:50:54.680Z,98422.00
2023-01-13T21:53:29.575Z,98427.00
2023-01-13T21:56:04.790Z,98435.00
2023-01-13T21:58:39.763Z,98422.00
2023-01-13T22:01:15.611Z,98429.00
2023-01-13T22:04:08.821Z,98434.00
2023-01-13T22:06:43.682Z,98431.00
2023-01-13T22:09:18.515Z,98458.00
2023-01-13T22:11:53.368Z,98440.00
2023-01-13T22:14:28.223Z,98447.00
2023-01-13T22:17:04.075Z,98445.00
2023-01-13T22:19:42.085Z,98449.00
2023-01-13T22:22:18.770Z,98448.00
2023-01-13T22:24:54.172Z,98466.00
2023-01-13T22:27:30.587Z,98465.00
2023-01-13T22:30:09.063Z,98473.00
2023-01-13T22:32:45.866Z,98473.00
2023-01-13T22:35:20.871Z,98464.00
2023-01-13T22:37:55.726Z,98463.00
2023-01-13T22:40:30.552Z,98457.00
2023-01-13T22:43:05.376Z,98460.00
2023-01-13T22:45:40.289Z,98465.00
2023-01-13T22:48:15.221Z,98457.00
2023-01-13T22:50:50.117Z,98450.00
2023-01-13T22:53:24.979Z,98445.00
2023-01-13T22:56:00.357Z,98445.00
2023-01-13T22:58:35.209Z,98444.00
2023-01-13T23:01:16.394Z,98446.00
2023-01-13T23:03:51.788Z,98439.00
2023-01-13T23:06:29.191Z,98444.00
2023-01-13T23:09:04.288Z,98453.00
2023-01-13T23:11:40.900Z,98447.00
2023-01-13T23:14:15.832Z,98458.00
2023-01-13T23:16:50.771Z,98452.00
2023-01-13T23:19:25.838Z,98457.00
2023-01-13T23:22:00.692Z,98466.00
2023-01-13T23:24:35.533Z,98466.00
2023-01-13T23:27:10.375Z,98470.00
2023-01-13T23:29:45.249Z,98470.00
2023-01-13T23:32:20.163Z,98477.00
2023-01-13T23:34:55.009Z,98477.00
2023-01-13T23:37:29.857Z,98482.00
2023-01-13T23:40:05.461Z,98481.00
2023-01-13T23:42:40.302Z,98483.00
2023-01-13T23:45:15.445Z,98481.00
2023-01-13T23:47:50.324Z,98478.00
2023-01-13T23:50:25.238Z,98481.00
2023-01-13T23:53:00.171Z,98470.00
2023-01-13T23:55:35.263Z,98465.00
2023-01-13T23:58:10.195Z,98467.00
